Terminal Aerodrome Forecast
Issued by NWS Amarillo, TX

Home | Current Version | Previous Version | Text Only | Print | Product List | Glossary On
Versions: 1 2 3 4 5 6 7 8 9 10 11 12 13 14 15 16 17 18
000
FTUS44 KAMA 271734
TAFAMA
TAF
KAMA 271734Z 2718/2818 VRB06KT P6SM SKC
     FM272200 15013KT P6SM SKC
     FM281000 13015KT P6SM BKN010
     FM281400 12014KT P6SM -RA BKN040=

USA.gov is the U.S. government's official web portal to all federal, state and local government web resources and services.